Time;durP1;ratioP1;P1;durP2;ratioP2;P2;SDS_P1;SDS_P2;PMS_P1;PMS_P2;Temp;Humidity;BMP_temperature;BMP_pressure;BME280_temperature;BME280_humidity;BME280_pressure;Samples;Min_cycle;Max_cycle;Signal;HPM_P1;HPM_P2
2022/09/26 00:01:48;;;;;;;13.73;9.07;;;;;;;15.64;65.06;97007.00;5015467;28;20866;-71
2022/09/26 00:04:18;;;;;;;13.50;8.63;;;;;;;15.65;64.95;97006.81;5024128;28;20216;-73
2022/09/26 00:06:43;;;;;;;13.93;9.03;;;;;;;15.60;65.08;97003.13;5017786;28;20290;-73
2022/09/26 00:09:09;;;;;;;10.57;7.90;;;;;;;15.64;64.91;97012.28;5013035;28;20959;-72
2022/09/26 00:11:34;;;;;;;8.30;7.40;;;;;;;15.64;65.04;97005.19;5022833;28;20687;-72
2022/09/26 00:14:06;;;;;;;13.30;7.67;;;;;;;15.65;64.71;96998.06;5016960;28;20338;-73
2022/09/26 00:16:31;;;;;;;8.93;7.00;;;;;;;15.50;65.60;96992.84;5012275;28;20231;-73
2022/09/26 00:18:57;;;;;;;17.17;7.30;;;;;;;15.49;65.48;96992.06;5023321;28;20471;-73
2022/09/26 00:21:25;;;;;;;10.27;8.03;;;;;;;15.51;65.48;96990.00;5018844;28;20239;-73
2022/09/26 00:23:50;;;;;;;14.40;8.23;;;;;;;15.51;65.43;96990.00;5019071;28;20459;-74
2022/09/26 00:26:18;;;;;;;11.37;8.60;;;;;;;15.50;65.39;96996.28;5027459;28;20477;-75
2022/09/26 00:28:44;;;;;;;7.40;6.70;;;;;;;15.48;65.29;96995.69;5021347;28;20204;-73
2022/09/26 00:31:15;;;;;;;14.70;7.70;;;;;;;15.46;65.08;96994.22;5031000;28;20574;-73
2022/09/26 00:33:41;;;;;;;11.17;7.43;;;;;;;15.43;64.96;96995.44;5024780;28;20207;-73
2022/09/26 00:36:07;;;;;;;9.70;7.03;;;;;;;15.37;65.18;96996.19;5035279;28;20826;-74
2022/09/26 00:38:33;;;;;;;10.00;8.10;;;;;;;15.37;65.02;96988.28;5024051;28;20431;-74
2022/09/26 00:40:59;;;;;;;9.10;7.30;;;;;;;15.39;65.01;96991.53;5029971;28;20207;-73
2022/09/26 00:43:34;;;;;;;11.80;6.83;;;;;;;15.29;65.14;96986.56;5027768;28;20199;-74
2022/09/26 00:46:11;;;;;;;9.90;7.70;;;;;;;15.23;65.20;96986.50;5034198;28;20234;-76
2022/09/26 00:48:38;;;;;;;9.13;7.43;;;;;;;15.19;65.21;96991.31;5022770;28;20431;-73
2022/09/26 00:51:04;;;;;;;9.30;7.23;;;;;;;15.18;65.14;96992.34;5018900;28;20434;-76
2022/09/26 00:53:38;;;;;;;8.27;7.20;;;;;;;15.11;65.00;96989.63;5026568;28;20431;-76
2022/09/26 00:56:08;;;;;;;8.90;8.00;;;;;;;15.13;64.91;96994.72;5022046;28;20196;-72
2022/09/26 00:58:48;;;;;;;11.83;7.30;;;;;;;15.03;64.54;96990.56;5030744;28;20537;-73
2022/09/26 01:01:14;;;;;;;15.97;9.10;;;;;;;15.01;64.66;96999.66;5022230;28;20423;-72
2022/09/26 01:03:42;;;;;;;12.80;8.30;;;;;;;14.96;64.70;96991.47;5024320;28;20442;-74
2022/09/26 01:06:07;;;;;;;11.10;7.57;;;;;;;14.95;64.41;96989.84;5021525;28;20463;-73
2022/09/26 01:08:37;;;;;;;9.50;7.87;;;;;;;14.89;64.30;96979.03;5016525;28;20438;-73
2022/09/26 01:11:03;;;;;;;9.70;7.40;;;;;;;14.85;64.36;96969.84;5025608;28;20231;-71
2022/09/26 01:13:32;;;;;;;13.80;7.63;;;;;;;14.84;64.11;96968.22;5015968;28;20893;-71
2022/09/26 01:15:57;;;;;;;9.30;7.63;;;;;;;14.87;63.71;96969.66;5028073;28;20179;-73
2022/09/26 01:18:23;;;;;;;9.90;7.30;;;;;;;14.86;63.90;96968.84;5020250;28;21929;-74
2022/09/26 01:20:57;;;;;;;15.27;7.83;;;;;;;14.83;63.90;96968.38;5018258;28;20806;-73
2022/09/26 01:23:49;;;;;;;10.73;7.87;;;;;;;14.82;63.88;96964.09;5020292;28;20188;-73
2022/09/26 01:26:27;;;;;;;8.93;7.43;;;;;;;14.76;63.70;96970.94;5044806;28;20550;-74
2022/09/26 01:29:24;;;;;;;8.77;7.00;;;;;;;14.69;63.75;96970.06;5045601;28;20437;-72
2022/09/26 01:35:22;;;;;;;8.77;7.13;;;;;;;14.61;63.79;96968.31;5019048;28;20451;-72
2022/09/26 01:38:10;;;;;;;9.77;7.67;;;;;;;14.51;63.37;96973.84;5021216;28;20439;-72
2022/09/26 01:40:54;;;;;;;8.27;7.30;;;;;;;14.52;63.40;96975.50;5023341;28;20444;-73
2022/09/26 01:43:29;;;;;;;13.17;7.33;;;;;;;14.52;63.17;96980.75;5021907;28;20490;-73
2022/09/26 01:46:33;;;;;;;9.87;7.73;;;;;;;14.41;63.36;96976.78;5038748;28;20477;-74
2022/09/26 01:49:16;;;;;;;9.63;7.10;;;;;;;14.40;63.50;96976.94;5006725;28;20538;-74
2022/09/26 01:52:00;;;;;;;13.30;7.00;;;;;;;14.41;63.22;96978.59;4981304;28;20955;-73
2022/09/26 01:54:42;;;;;;;9.23;7.20;;;;;;;14.38;63.44;96973.66;5030968;28;20456;-74
2022/09/26 01:57:13;;;;;;;8.57;6.67;;;;;;;14.39;63.34;96967.41;5029523;28;20435;-73
2022/09/26 01:59:44;;;;;;;11.40;6.53;;;;;;;14.30;63.15;96977.25;5037784;28;20949;-73
2022/09/26 02:02:17;;;;;;;8.90;7.17;;;;;;;14.35;63.53;96976.69;5027171;28;20510;-74
2022/09/26 02:04:44;;;;;;;10.13;7.00;;;;;;;14.34;63.54;96978.50;5036454;28;20474;-72
2022/09/26 02:07:15;;;;;;;8.93;7.53;;;;;;;14.34;63.66;96975.06;5025671;28;20440;-72
2022/09/26 02:09:46;;;;;;;9.40;7.23;;;;;;;14.38;63.57;96978.94;5040528;28;20936;-73
2022/09/26 02:12:18;;;;;;;8.03;7.23;;;;;;;14.37;63.57;96967.59;5032450;28;20431;-74
2022/09/26 02:14:46;;;;;;;7.93;6.80;;;;;;;14.35;63.55;96961.69;5040200;28;20536;-73
2022/09/26 02:17:14;;;;;;;13.40;6.83;;;;;;;14.35;63.64;96968.78;5028247;28;20435;-72
2022/09/26 02:19:45;;;;;;;8.33;7.33;;;;;;;14.21;63.75;96968.59;5026325;28;20792;-72
2022/09/26 02:22:11;;;;;;;10.20;7.60;;;;;;;14.22;64.08;96964.13;5035732;28;20435;-72
2022/09/26 02:24:36;;;;;;;8.00;7.00;;;;;;;14.28;64.09;96955.53;5026704;28;20472;-73
2022/09/26 02:27:02;;;;;;;8.47;6.50;;;;;;;14.30;64.20;96953.53;5025880;28;20192;-73
2022/09/26 02:29:27;;;;;;;8.03;6.90;;;;;;;14.22;64.40;96954.44;5031254;28;20210;-74
2022/09/26 02:31:57;;;;;;;8.93;6.90;;;;;;;14.24;64.47;96947.13;5027581;28;20435;-74
2022/09/26 02:34:24;;;;;;;12.43;7.70;;;;;;;14.21;64.15;96942.25;5031949;28;20208;-73
2022/09/26 02:36:49;;;;;;;11.33;7.27;;;;;;;14.25;64.36;96947.97;5013170;28;20582;-73
2022/09/26 02:39:15;;;;;;;8.30;6.53;;;;;;;14.19;64.15;96941.59;5033027;28;20439;-73
2022/09/26 02:41:49;;;;;;;7.73;6.97;;;;;;;14.14;64.54;96941.31;5033192;28;20199;-72
2022/09/26 02:44:17;;;;;;;8.00;6.50;;;;;;;14.14;64.81;96941.31;5027253;28;20306;-72
2022/09/26 02:47:11;;;;;;;11.27;7.30;;;;;;;14.15;64.45;96940.31;5024579;28;20480;-72
2022/09/26 02:50:10;;;;;;;8.10;6.40;;;;;;;14.20;64.20;96940.59;5032796;28;20426;-72
2022/09/26 02:52:54;;;;;;;8.30;7.30;;;;;;;14.21;63.99;96942.25;5014803;28;21020;-74
2022/09/26 02:55:47;;;;;;;7.30;6.60;;;;;;;14.22;64.30;96937.78;5032391;28;20868;-73
2022/09/26 02:58:24;;;;;;;7.40;6.67;;;;;;;14.26;64.07;96931.16;5012624;28;20510;-72
2022/09/26 03:01:03;;;;;;;9.07;6.90;;;;;;;14.25;63.96;96930.31;5021538;28;20435;-73
2022/09/26 03:03:42;;;;;;;7.53;6.73;;;;;;;14.27;64.20;96920.41;5021965;28;20449;-72
2022/09/26 03:06:11;;;;;;;8.50;7.07;;;;;;;14.24;64.31;96926.03;5008445;28;20481;-73
2022/09/26 03:08:40;;;;;;;10.27;7.20;;;;;;;14.22;64.50;96920.16;5044098;28;20430;-72
2022/09/26 03:11:08;;;;;;;10.17;7.40;;;;;;;14.21;64.65;96915.06;5020265;28;20522;-73
2022/09/26 03:13:36;;;;;;;12.77;7.87;;;;;;;14.22;64.78;96916.69;5017846;28;20563;-71
2022/09/26 03:16:02;;;;;;;13.23;7.47;;;;;;;14.20;64.68;96905.50;5026744;28;21194;-73
2022/09/26 03:18:35;;;;;;;10.43;7.47;;;;;;;14.20;64.48;96897.59;5022004;28;20461;-74
2022/09/26 03:21:01;;;;;;;7.30;6.60;;;;;;;14.24;64.80;96894.41;5022330;28;20262;-73
2022/09/26 03:23:26;;;;;;;8.60;6.53;;;;;;;14.28;64.77;96895.69;5017553;28;20469;-72
2022/09/26 03:26:12;;;;;;;9.30;6.53;;;;;;;14.27;64.73;96899.34;5026306;28;20240;-73
2022/09/26 03:28:38;;;;;;;8.43;6.87;;;;;;;14.28;64.78;96897.53;5022555;28;20686;-74
2022/09/26 03:31:04;;;;;;;7.80;6.30;;;;;;;14.28;64.85;96887.78;5014260;28;20446;-73
2022/09/26 03:33:30;;;;;;;7.80;6.33;;;;;;;14.35;64.92;96895.78;5013396;28;20207;-73
2022/09/26 03:35:58;;;;;;;7.80;6.93;;;;;;;14.30;64.84;96887.63;5031848;28;20454;-74
2022/09/26 03:38:25;;;;;;;8.87;6.93;;;;;;;14.25;65.09;96889.97;5016722;28;20215;-72
2022/09/26 03:40:51;;;;;;;8.40;6.80;;;;;;;14.27;65.02;96878.25;5030597;28;20453;-72
2022/09/26 03:43:16;;;;;;;8.17;6.60;;;;;;;14.28;64.92;96884.34;5022652;28;20435;-75
2022/09/26 03:45:42;;;;;;;6.90;6.00;;;;;;;14.32;64.85;96880.31;5042767;28;20765;-73
2022/09/26 03:48:07;;;;;;;6.73;5.90;;;;;;;14.28;65.06;96879.88;5038315;28;20195;-73
2022/09/26 03:50:33;;;;;;;7.20;6.00;;;;;;;14.25;65.05;96876.81;5053251;28;20183;-71
2022/09/26 03:53:01;;;;;;;7.17;6.10;;;;;;;14.26;65.18;96876.59;5044310;28;20180;-73
2022/09/26 03:55:27;;;;;;;7.67;6.23;;;;;;;14.32;64.77;96875.06;5046960;28;20578;-71
2022/09/26 03:57:52;;;;;;;8.23;6.80;;;;;;;14.22;64.96;96867.47;5043422;28;20425;-73
2022/09/26 04:00:18;;;;;;;7.13;6.43;;;;;;;14.21;64.83;96862.34;5043913;28;20270;-74
2022/09/26 04:02:43;;;;;;;9.60;6.73;;;;;;;14.22;65.22;96856.91;5045102;28;20187;-73
2022/09/26 04:05:09;;;;;;;6.87;6.17;;;;;;;14.22;65.06;96856.91;5036918;28;20214;-73
2022/09/26 04:07:34;;;;;;;7.50;5.87;;;;;;;14.23;65.47;96855.91;5051653;28;20256;-73
2022/09/26 04:10:00;;;;;;;7.50;6.00;;;;;;;14.26;65.03;96865.25;5044343;28;20271;-74
2022/09/26 04:12:26;;;;;;;9.33;6.00;;;;;;;14.26;64.98;96858.16;5043058;28;20190;-75
2022/09/26 04:14:52;;;;;;;6.50;5.60;;;;;;;14.25;65.13;96853.09;5046451;28;20235;-73
2022/09/26 04:17:18;;;;;;;8.23;6.47;;;;;;;14.20;65.00;96845.72;5043011;28;20483;-73
2022/09/26 04:19:44;;;;;;;9.37;6.83;;;;;;;14.23;65.24;96834.84;5047444;28;20426;-74
2022/09/26 04:22:09;;;;;;;6.40;5.80;;;;;;;14.22;65.08;96835.00;5031045;28;20268;-75
2022/09/26 04:24:35;;;;;;;7.63;6.17;;;;;;;14.20;64.96;96831.72;5051909;28;20344;-73
2022/09/26 04:27:00;;;;;;;6.70;6.00;;;;;;;14.19;64.70;96830.91;5021765;28;20181;-75
2022/09/26 04:29:26;;;;;;;8.03;5.80;;;;;;;14.22;64.76;96825.28;5034649;28;20183;-73
2022/09/26 04:31:52;;;;;;;7.30;5.57;;;;;;;14.19;64.51;96820.38;5027531;28;20215;-73
2022/09/26 04:34:17;;;;;;;6.60;5.80;;;;;;;14.16;64.44;96818.09;5043054;28;20212;-73
2022/09/26 04:36:43;;;;;;;5.57;5.10;;;;;;;14.06;64.56;96815.75;5047419;28;20522;-74
2022/09/26 04:39:08;;;;;;;5.80;5.30;;;;;;;14.06;64.71;96814.94;5031866;28;20188;-74
2022/09/26 04:41:34;;;;;;;8.03;6.00;;;;;;;14.07;64.40;96811.31;5045400;28;20661;-75
2022/09/26 04:44:00;;;;;;;8.50;5.63;;;;;;;14.06;64.78;96809.69;5030702;28;20666;-73
2022/09/26 04:46:27;;;;;;;9.33;5.93;;;;;;;14.08;64.57;96812.94;5040576;28;20203;-73
2022/09/26 04:48:55;;;;;;;6.10;5.23;;;;;;;14.06;64.51;96810.47;5044839;28;20490;-73
2022/09/26 04:51:22;;;;;;;6.00;5.23;;;;;;;14.06;64.48;96809.69;5046398;28;20530;-73
2022/09/26 04:53:49;;;;;;;9.70;5.40;;;;;;;14.03;64.55;96816.13;5036402;28;20434;-74
2022/09/26 04:56:15;;;;;;;5.80;5.27;;;;;;;13.95;64.69;96806.50;5047370;28;20414;-73
2022/09/26 04:58:42;;;;;;;7.43;6.67;;;;;;;13.89;64.79;96811.69;5046453;28;20440;-73
2022/09/26 05:01:09;;;;;;;9.27;6.80;;;;;;;13.86;64.81;96807.59;5042752;28;20477;-73
2022/09/26 05:03:38;;;;;;;7.10;6.40;;;;;;;13.92;64.92;96800.81;5033300;28;20426;-72
2022/09/26 05:06:06;;;;;;;7.33;5.83;;;;;;;13.96;64.83;96805.50;5043928;28;20538;-72
2022/09/26 05:08:31;;;;;;;7.73;5.70;;;;;;;13.97;64.65;96799.25;5032135;28;20788;-72
2022/09/26 05:10:57;;;;;;;6.17;5.57;;;;;;;13.92;64.63;96811.34;5037090;28;20430;-72
2022/09/26 05:13:23;;;;;;;6.03;5.30;;;;;;;13.92;64.47;96800.81;5048271;28;20659;-72
2022/09/26 05:15:52;;;;;;;5.60;5.00;;;;;;;13.91;64.22;96799.16;5041563;28;20211;-72
2022/09/26 05:18:17;;;;;;;7.90;5.70;;;;;;;13.89;64.46;96807.22;5036262;28;20750;-73
2022/09/26 05:20:47;;;;;;;5.20;4.70;;;;;;;13.84;64.38;96809.63;5033262;28;20572;-73
2022/09/26 05:26:18;;;;;;;7.40;4.97;;;;;;;13.88;64.08;96810.88;5040837;28;20218;-70
2022/09/26 05:28:42;;;;;;;6.30;4.87;;;;;;;13.84;64.23;96814.88;5032929;28;20839;-74
2022/09/26 05:31:08;;;;;;;4.87;4.20;;;;;;;13.92;64.23;96816.59;5036283;28;20417;-73
2022/09/26 05:33:36;;;;;;;4.63;3.73;;;;;;;13.88;63.97;96810.88;5013089;28;20266;-72
2022/09/26 05:36:02;;;;;;;5.57;4.50;;;;;;;13.87;64.10;96801.31;5044159;28;20303;-73
2022/09/26 05:38:27;;;;;;;5.07;4.57;;;;;;;13.89;64.06;96795.91;5043676;28;20438;-74
2022/09/26 05:40:55;;;;;;;8.67;5.27;;;;;;;13.91;64.33;96796.53;5029102;28;20509;-74
2022/09/26 05:43:22;;;;;;;6.97;5.30;;;;;;;13.91;63.98;96799.97;5030332;28;20227;-72
2022/09/26 05:45:49;;;;;;;8.00;5.60;;;;;;;13.91;63.82;96799.16;5037973;28;20479;-72
2022/09/26 05:48:16;;;;;;;8.47;5.33;;;;;;;13.87;64.04;96793.41;5037605;28;20431;-73
2022/09/26 05:50:42;;;;;;;8.73;5.40;;;;;;;13.86;63.88;96791.78;5049804;28;20960;-72
2022/09/26 05:53:08;;;;;;;7.80;4.90;;;;;;;13.83;64.03;96789.53;5042087;28;20484;-72
2022/09/26 05:55:36;;;;;;;10.00;5.60;;;;;;;13.86;64.10;96785.72;5051273;28;20558;-73
2022/09/26 05:58:02;;;;;;;10.23;4.90;;;;;;;13.87;64.14;96784.72;5042540;28;20418;-72
2022/09/26 06:00:27;;;;;;;6.73;5.10;;;;;;;13.87;64.35;96788.16;5043333;28;20429;-73
2022/09/26 06:02:57;;;;;;;6.83;5.17;;;;;;;13.87;64.43;96785.53;5042885;28;20430;-74
2022/09/26 06:05:23;;;;;;;6.43;5.33;;;;;;;13.92;64.60;96787.63;5044118;28;20370;-73
2022/09/26 06:07:49;;;;;;;5.67;4.87;;;;;;;13.95;64.53;96785.44;5047505;28;20432;-73
2022/09/26 06:10:14;;;;;;;6.10;4.90;;;;;;;13.93;64.55;96784.81;5042680;28;20418;-72
2022/09/26 06:12:40;;;;;;;7.40;5.00;;;;;;;13.87;64.43;96780.25;5051028;28;20575;-73
2022/09/26 06:15:08;;;;;;;7.60;5.60;;;;;;;13.94;64.75;96777.69;5041212;28;20196;-72
2022/09/26 06:17:33;;;;;;;8.27;4.63;;;;;;;14.05;64.97;96785.13;5032732;28;20192;-75
2022/09/26 06:19:59;;;;;;;7.03;4.33;;;;;;;14.07;64.35;96777.06;5032221;28;20934;-72
2022/09/26 06:22:25;;;;;;;5.20;3.83;;;;;;;14.21;64.08;96784.13;5036045;28;20211;-71
2022/09/26 06:24:51;;;;;;;6.07;3.43;;;;;;;14.35;63.14;96773.72;5036249;28;20238;-73
2022/09/26 06:27:17;;;;;;;4.57;4.17;;;;;;;14.34;63.06;96772.09;5042859;28;20466;-74
2022/09/26 06:29:42;;;;;;;4.93;4.13;;;;;;;14.43;62.95;96781.50;5050757;28;20183;-74
2022/09/26 06:32:07;;;;;;;5.03;4.03;;;;;;;14.44;62.04;96768.13;5042523;28;20211;-75
2022/09/26 06:34:33;;;;;;;8.27;4.20;;;;;;;14.41;62.19;96757.97;5042927;28;20238;-75
2022/09/26 06:36:58;;;;;;;10.60;4.10;;;;;;;14.46;62.06;96764.50;5040169;28;20325;-75
2022/09/26 06:39:30;;;;;;;5.00;4.47;;;;;;;14.43;62.32;96755.13;5024196;28;20278;-74
2022/09/26 06:41:55;;;;;;;4.87;4.47;;;;;;;14.46;62.00;96754.78;5032752;28;20205;-75
2022/09/26 06:44:22;;;;;;;10.10;4.70;;;;;;;14.40;62.15;96755.50;5013818;28;20446;-73
2022/09/26 06:46:48;;;;;;;7.03;4.73;;;;;;;14.42;62.36;96762.25;5027564;28;20214;-72
2022/09/26 06:49:13;;;;;;;6.60;5.37;;;;;;;14.48;62.29;96758.03;5033285;28;20431;-74
2022/09/26 06:51:39;;;;;;;4.73;4.30;;;;;;;14.52;62.54;96761.91;5036970;28;20190;-75
2022/09/26 06:54:04;;;;;;;4.87;3.70;;;;;;;14.44;61.95;96756.78;5027516;28;20576;-73
2022/09/26 06:56:30;;;;;;;7.17;3.70;;;;;;;14.48;62.54;96741.38;5038009;28;20186;-73
2022/09/26 06:58:56;;;;;;;5.20;4.00;;;;;;;14.52;62.13;96745.28;5035406;28;20195;-73
2022/09/26 07:01:21;;;;;;;3.97;3.53;;;;;;;14.62;62.28;96747.63;5021502;28;20210;-73
2022/09/26 07:03:47;;;;;;;3.83;3.53;;;;;;;14.57;61.56;96746.34;5033804;28;20430;-73
2022/09/26 07:06:13;;;;;;;8.40;4.33;;;;;;;14.66;62.28;96744.41;5024069;28;20223;-73
2022/09/26 07:08:39;;;;;;;5.27;4.23;;;;;;;14.77;62.27;96735.19;5029544;28;20218;-73
2022/09/26 07:11:04;;;;;;;8.93;3.43;;;;;;;14.95;62.51;96741.81;5029482;28;20200;-74
2022/09/26 07:13:30;;;;;;;10.63;3.30;;;;;;;15.16;62.79;96744.41;5023635;28;20429;-73
2022/09/26 07:15:59;;;;;;;9.73;4.00;;;;;;;15.29;62.24;96742.88;5013792;28;20274;-73
2022/09/26 07:18:24;;;;;;;3.50;3.20;;;;;;;15.28;60.73;96746.50;5027958;28;20270;-74
2022/09/26 07:20:51;;;;;;;5.83;3.70;;;;;;;15.28;59.79;96746.50;5033890;28;20431;-74
2022/09/26 07:23:16;;;;;;;4.77;3.30;;;;;;;15.34;59.81;96745.75;5036256;28;20755;-74
2022/09/26 07:25:46;;;;;;;5.63;3.10;;;;;;;15.44;59.64;96748.03;5039156;28;20544;-74
2022/09/26 07:28:12;;;;;;;4.37;3.20;;;;;;;15.51;59.57;96741.78;5031932;28;20218;-74
2022/09/26 07:30:37;;;;;;;6.00;3.07;;;;;;;15.51;59.10;96736.50;5039003;28;20462;-75
2022/09/26 07:33:03;;;;;;;6.23;3.10;;;;;;;15.51;59.31;96736.50;5031113;28;20530;-72
2022/09/26 07:35:34;;;;;;;5.90;3.10;;;;;;;15.28;59.49;96735.97;5024873;28;20206;-74
2022/09/26 07:37:59;;;;;;;4.30;3.13;;;;;;;15.41;59.44;96732.59;5038960;28;20421;-74
2022/09/26 07:40:25;;;;;;;4.20;2.90;;;;;;;15.49;59.76;96722.69;5030682;28;20483;-74
2022/09/26 07:42:51;;;;;;;3.50;3.20;;;;;;;15.47;59.79;96729.16;5020813;28;20566;-75
2022/09/26 07:50:10;;;;;;;5.23;3.10;;;;;;;15.41;59.71;96730.75;5044193;28;20457;-74
2022/09/26 07:50:58;;;;;;;3.83;3.13;;;;;;;15.47;59.49;96718.59;5036276;28;20426;-73
2022/09/26 07:53:25;;;;;;;4.83;3.40;;;;;;;15.30;59.58;96721.56;5041262;28;20548;-75
2022/09/26 07:56:09;;;;;;;5.03;3.00;;;;;;;15.35;59.48;96723.63;5048276;28;20811;-72
2022/09/26 07:58:40;;;;;;;9.43;3.27;;;;;;;15.20;59.96;96715.81;5012248;28;20800;-73
2022/09/26 08:01:10;;;;;;;5.07;3.30;;;;;;;15.23;59.50;96727.81;5038395;28;20422;-74
2022/09/26 08:03:44;;;;;;;6.83;2.87;;;;;;;15.17;59.68;96714.38;5045414;28;20659;-73
2022/09/26 08:06:16;;;;;;;3.83;3.13;;;;;;;15.26;59.66;96715.03;5039622;28;20824;-74
2022/09/26 08:08:41;;;;;;;7.20;3.50;;;;;;;15.31;59.73;96709.19;5045941;28;20425;-74
2022/09/26 08:11:14;;;;;;;4.03;3.33;;;;;;;15.36;59.83;96704.13;5042596;28;20786;-71
2022/09/26 08:13:42;;;;;;;6.77;4.13;;;;;;;15.39;59.58;96701.09;5029506;28;20198;-75
2022/09/26 08:16:08;;;;;;;4.67;2.63;;;;;;;15.51;59.51;96698.72;5033279;28;21010;-73
2022/09/26 08:18:33;;;;;;;3.80;3.40;;;;;;;15.69;59.66;96700.03;5039307;28;20505;-71
2022/09/26 08:21:02;;;;;;;6.23;3.07;;;;;;;15.76;59.32;96695.56;5037990;28;20960;-75
2022/09/26 08:23:28;;;;;;;10.83;3.97;;;;;;;15.71;58.68;96697.97;5041020;28;20187;-74
2022/09/26 08:25:54;;;;;;;12.07;3.83;;;;;;;15.75;58.18;96694.75;5046074;28;20504;-75
2022/09/26 08:28:19;;;;;;;8.60;3.23;;;;;;;15.86;57.93;96687.31;5042078;28;20450;-74
2022/09/26 08:30:45;;;;;;;5.33;3.50;;;;;;;15.83;57.55;96691.13;5046853;28;20576;-73
2022/09/26 08:33:11;;;;;;;4.07;2.90;;;;;;;15.92;57.51;96687.34;5027147;28;20195;-74
2022/09/26 08:35:40;;;;;;;8.33;2.77;;;;;;;16.12;57.34;96683.91;5044164;28;20585;-73
2022/09/26 08:38:06;;;;;;;4.07;3.00;;;;;;;16.29;56.96;96684.34;5047827;28;20425;-73
2022/09/26 08:40:42;;;;;;;9.00;4.10;;;;;;;16.43;56.89;96675.41;5042911;28;20421;-73
2022/09/26 08:43:17;;;;;;;3.47;3.13;;;;;;;16.60;56.03;96675.03;5029108;28;20431;-74
2022/09/26 08:48:57;;;;;;;4.77;3.10;;;;;;;16.89;55.21;96675.59;5026845;28;20440;-74
2022/09/26 08:51:31;;;;;;;5.57;3.30;;;;;;;16.87;54.54;96677.66;5047389;28;21114;-74
2022/09/26 08:54:32;;;;;;;5.43;3.13;;;;;;;17.16;54.34;96680.88;5046364;28;20461;-74
2022/09/26 08:57:02;;;;;;;7.73;4.23;;;;;;;17.63;53.27;96680.75;5048057;28;20471;-74
2022/09/26 08:59:37;;;;;;;7.57;3.23;;;;;;;18.02;52.78;96683.47;5042789;28;20438;-72
2022/09/26 09:02:09;;;;;;;5.73;2.63;;;;;;;18.40;50.50;96679.94;5033570;28;20499;-72
2022/09/26 09:04:43;;;;;;;6.27;3.00;;;;;;;18.79;48.69;96685.97;5044935;28;20945;-72
2022/09/26 09:07:22;;;;;;;3.67;2.70;;;;;;;19.21;47.90;96679.28;5046653;28;20437;-74
2022/09/26 09:09:49;;;;;;;5.47;3.80;;;;;;;19.62;47.81;96673.28;5044707;28;20422;-73
2022/09/26 09:12:32;;;;;;;4.20;2.90;;;;;;;20.03;46.27;96670.16;5049670;28;20431;-73
2022/09/26 09:15:16;;;;;;;3.97;2.50;;;;;;;20.24;45.39;96674.94;5044654;28;20477;-73
2022/09/26 09:17:51;;;;;;;3.13;2.30;;;;;;;20.68;43.41;96673.91;5037926;28;20453;-73
2022/09/26 09:20:43;;;;;;;2.70;2.30;;;;;;;20.77;42.69;96669.06;5042916;28;20808;-73
2022/09/26 09:23:14;;;;;;;5.93;2.73;;;;;;;21.00;43.75;96662.91;5034227;28;20422;-73
2022/09/26 09:26:02;;;;;;;6.73;2.80;;;;;;;21.29;43.47;96660.34;5048874;28;20552;-72
2022/09/26 09:28:39;;;;;;;4.07;2.80;;;;;;;21.54;43.13;96660.09;5043054;28;20426;-73
2022/09/26 09:31:07;;;;;;;2.67;2.37;;;;;;;21.58;43.06;96655.88;5049091;28;20421;-73
2022/09/26 09:33:40;;;;;;;5.00;2.60;;;;;;;21.81;40.03;96656.88;5042826;28;20431;-73
2022/09/26 09:36:12;;;;;;;3.13;2.20;;;;;;;22.10;40.33;96656.88;5045029;28;20449;-73
2022/09/26 09:38:39;;;;;;;4.63;2.90;;;;;;;22.52;39.92;96650.41;5039082;28;20463;-74
2022/09/26 09:41:12;;;;;;;4.30;2.10;;;;;;;22.41;40.35;96638.75;5044313;28;20433;-73
2022/09/26 09:43:44;;;;;;;4.13;2.47;;;;;;;22.18;39.71;96643.13;5035330;28;20422;-73
2022/09/26 09:46:24;;;;;;;3.20;1.67;;;;;;;22.44;39.31;96640.13;5040235;28;20477;-72
2022/09/26 09:48:53;;;;;;;7.43;1.77;;;;;;;22.52;37.76;96647.72;5043522;28;20476;-73
2022/09/26 09:51:34;;;;;;;3.80;1.93;;;;;;;22.66;38.04;96642.88;5044146;28;20422;-73
2022/09/26 09:54:08;;;;;;;2.30;2.10;;;;;;;22.98;38.57;96635.06;5045238;28;20528;-75
2022/09/26 09:56:46;;;;;;;4.00;2.00;;;;;;;23.11;37.42;96628.56;5044083;28;20434;-74
2022/09/26 09:59:38;;;;;;;10.53;2.20;;;;;;;23.08;36.63;96620.22;5041816;28;20441;-75
2022/09/26 10:02:35;;;;;;;1.70;1.57;;;;;;;23.00;36.67;96616.13;5044843;28;20475;-72
2022/09/26 10:05:21;;;;;;;3.50;1.60;;;;;;;23.02;36.38;96620.16;5037512;28;20439;-74
2022/09/26 10:07:48;;;;;;;8.33;1.80;;;;;;;22.34;36.44;96609.53;5039440;28;20500;-73
2022/09/26 10:10:20;;;;;;;4.27;1.60;;;;;;;21.71;36.35;96620.19;5041934;28;20845;-75
2022/09/26 10:12:50;;;;;;;2.50;1.50;;;;;;;21.13;37.47;96621.94;5049203;28;20472;-74
2022/09/26 10:15:22;;;;;;;6.20;1.80;;;;;;;20.55;38.44;96616.34;5037013;28;20436;-73
2022/09/26 10:18:02;;;;;;;3.47;2.03;;;;;;;20.45;38.75;96611.63;5029531;28;20430;-72
2022/09/26 10:20:40;;;;;;;3.40;1.90;;;;;;;20.00;40.25;96614.75;5042199;28;20458;-74
2022/09/26 10:23:34;;;;;;;1.73;1.63;;;;;;;20.04;41.00;96611.41;5038145;28;20449;-73
2022/09/26 10:26:03;;;;;;;5.73;1.90;;;;;;;20.62;40.62;96595.78;5047812;28;20461;-73
2022/09/26 10:28:34;;;;;;;3.93;2.13;;;;;;;20.95;39.56;96593.59;5036235;28;20456;-73
2022/09/26 10:31:08;;;;;;;2.60;1.80;;;;;;;21.54;39.00;96585.44;5042014;28;20461;-73
2022/09/26 10:33:36;;;;;;;2.73;1.43;;;;;;;21.69;37.66;96589.44;5040818;28;20441;-73
2022/09/26 10:36:18;;;;;;;3.43;1.33;;;;;;;21.31;36.63;96584.47;5043881;28;20548;-73
2022/09/26 10:42:00;;;;;;;2.80;1.77;;;;;;;21.17;37.37;96581.25;5038341;28;20526;-73
2022/09/26 10:44:33;;;;;;;4.50;1.90;;;;;;;21.10;38.17;96579.78;5031660;28;20442;-75
2022/09/26 10:47:07;;;;;;;5.00;1.93;;;;;;;21.00;39.12;96577.69;5039457;28;20522;-74
2022/09/26 10:49:55;;;;;;;2.70;1.40;;;;;;;20.83;38.46;96575.78;5045434;28;20567;-74
2022/09/26 10:52:22;;;;;;;2.63;1.80;;;;;;;20.75;38.86;96580.63;5046198;28;20468;-72
2022/09/26 10:55:08;;;;;;;4.80;1.63;;;;;;;20.53;39.30;96573.22;5044460;28;20522;-74
2022/09/26 10:57:38;;;;;;;2.17;1.60;;;;;;;20.59;39.28;96572.28;5028050;28;20418;-74
2022/09/26 11:00:07;;;;;;;3.70;1.90;;;;;;;20.75;38.32;96572.66;5039157;28;20938;-75
2022/09/26 11:02:32;;;;;;;2.50;1.20;;;;;;;20.82;37.42;96568.00;5014630;28;20428;-74
2022/09/26 11:07:46;;;;;;;2.97;2.43;;;;;;;20.87;37.88;96549.47;5038153;28;20203;-72
2022/09/26 11:10:16;;;;;;;3.23;1.37;;;;;;;20.86;37.76;96558.50;5040599;28;20498;-73
2022/09/26 11:13:21;;;;;;;3.10;1.30;;;;;;;20.85;36.96;96538.25;5049014;28;21001;-74
2022/09/26 11:16:06;;;;;;;1.40;1.30;;;;;;;21.01;36.52;96529.53;5039546;28;20811;-74
2022/09/26 11:18:41;;;;;;;2.43;1.10;;;;;;;20.98;36.55;96545.97;5030293;28;20790;-72
2022/09/26 11:21:42;;;;;;;1.63;1.10;;;;;;;21.48;36.39;96543.75;5037606;28;20464;-74
2022/09/26 11:24:14;;;;;;;1.40;1.03;;;;;;;21.76;34.76;96534.13;5036306;28;20500;-73
2022/09/26 11:27:10;;;;;;;2.23;1.30;;;;;;;21.92;34.59;96528.03;5041270;28;20454;-73
2022/09/26 11:29:40;;;;;;;1.10;1.00;;;;;;;22.01;34.15;96524.94;5036288;28;20420;-73
2022/09/26 11:32:16;;;;;;;1.77;0.90;;;;;;;22.01;33.45;96522.28;5041406;28;20468;-73
2022/09/26 11:34:42;;;;;;;1.63;1.17;;;;;;;22.31;33.32;96519.25;5035696;28;20876;-73
2022/09/26 11:37:29;;;;;;;1.93;1.30;;;;;;;22.46;33.89;96521.38;5041266;28;20422;-75
2022/09/26 11:40:21;;;;;;;5.40;1.20;;;;;;;22.36;35.21;96511.34;5043054;28;20194;-73
2022/09/26 11:43:24;;;;;;;6.13;1.10;;;;;;;22.49;35.17;96517.44;5023660;28;21119;-74
2022/09/26 11:45:50;;;;;;;3.93;1.40;;;;;;;22.44;34.98;96523.47;5037292;28;20461;-73
2022/09/26 11:48:31;;;;;;;2.20;1.20;;;;;;;22.66;34.85;96510.16;5031842;28;20430;-74
2022/09/26 11:51:03;;;;;;;2.77;1.03;;;;;;;22.88;34.16;96511.25;5045743;28;20422;-74
2022/09/26 11:53:38;;;;;;;1.00;0.90;;;;;;;22.74;33.95;96495.59;5041764;28;20504;-74
2022/09/26 11:56:51;;;;;;;2.17;1.00;;;;;;;22.15;34.67;96507.56;5037922;28;20426;-73
2022/09/26 11:59:35;;;;;;;2.83;1.20;;;;;;;21.62;35.11;96518.44;5035100;28;20422;-72
2022/09/26 12:02:15;;;;;;;1.77;0.90;;;;;;;21.48;37.11;96527.75;5042954;28;20417;-76
2022/09/26 12:04:49;;;;;;;1.83;1.40;;;;;;;21.04;41.27;96524.78;5036427;28;20447;-74
2022/09/26 12:07:21;;;;;;;2.40;1.23;;;;;;;20.62;41.92;96513.25;5044293;28;20916;-76
2022/09/26 12:10:19;;;;;;;3.80;1.10;;;;;;;20.24;44.13;96507.34;5044839;28;20485;-73